sensor_id;sensor_type;location;lat;lon;timestamp;P1;durP1;ratioP1;P2;durP2;ratioP2
60086;SDS011;45960;53.630;55.972;2022-09-09T00:00:28;8.50;;;5.72;;
60086;SDS011;45960;53.630;55.972;2022-09-09T00:01:49;13.95;;;5.75;;
60086;SDS011;45960;53.630;55.972;2022-09-09T00:03:06;10.18;;;6.07;;
60086;SDS011;45960;53.630;55.972;2022-09-09T00:06:54;13.82;;;5.47;;
60086;SDS011;45960;53.630;55.972;2022-09-09T00:08:07;9.13;;;5.40;;
60086;SDS011;45960;53.630;55.972;2022-09-09T00:09:19;15.57;;;5.38;;
60086;SDS011;45960;53.630;55.972;2022-09-09T00:10:29;13.80;;;5.63;;
60086;SDS011;45960;53.630;55.972;2022-09-09T00:11:42;9.63;;;5.00;;
60086;SDS011;45960;53.630;55.972;2022-09-09T00:20:00;7.72;;;4.53;;
60086;SDS011;45960;53.630;55.972;2022-09-09T00:22:18;7.10;;;4.43;;
60086;SDS011;45960;53.630;55.972;2022-09-09T00:23:27;8.00;;;5.10;;
60086;SDS011;45960;53.630;55.972;2022-09-09T00:24:51;9.82;;;5.05;;
60086;SDS011;45960;53.630;55.972;2022-09-09T00:25:59;8.23;;;4.40;;
60086;SDS011;45960;53.630;55.972;2022-09-09T00:27:11;7.70;;;4.82;;
60086;SDS011;45960;53.630;55.972;2022-09-09T00:28:20;7.60;;;4.80;;
60086;SDS011;45960;53.630;55.972;2022-09-09T00:29:33;12.30;;;4.82;;
60086;SDS011;45960;53.630;55.972;2022-09-09T00:30:36;8.75;;;5.18;;
60086;SDS011;45960;53.630;55.972;2022-09-09T00:31:38;8.57;;;4.85;;
60086;SDS011;45960;53.630;55.972;2022-09-09T00:32:40;8.95;;;5.50;;
60086;SDS011;45960;53.630;55.972;2022-09-09T00:33:41;12.32;;;5.25;;
60086;SDS011;45960;53.630;55.972;2022-09-09T00:34:51;8.27;;;5.20;;
60086;SDS011;45960;53.630;55.972;2022-09-09T00:35:58;17.08;;;4.70;;
60086;SDS011;45960;53.630;55.972;2022-09-09T00:37:01;8.18;;;4.80;;
60086;SDS011;45960;53.630;55.972;2022-09-09T00:38:10;8.57;;;4.93;;
60086;SDS011;45960;53.630;55.972;2022-09-09T00:39:21;11.75;;;4.82;;
60086;SDS011;45960;53.630;55.972;2022-09-09T00:40:33;9.73;;;4.57;;
60086;SDS011;45960;53.630;55.972;2022-09-09T00:42:59;11.50;;;5.60;;
60086;SDS011;45960;53.630;55.972;2022-09-09T00:47:55;8.18;;;4.80;;
60086;SDS011;45960;53.630;55.972;2022-09-09T00:53:35;7.88;;;5.10;;
60086;SDS011;45960;53.630;55.972;2022-09-09T00:55:15;12.43;;;5.15;;
60086;SDS011;45960;53.630;55.972;2022-09-09T00:56:32;11.90;;;5.15;;
60086;SDS011;45960;53.630;55.972;2022-09-09T00:57:46;10.35;;;4.63;;
60086;SDS011;45960;53.630;55.972;2022-09-09T01:00:32;7.03;;;4.13;;
60086;SDS011;45960;53.630;55.972;2022-09-09T01:01:40;7.82;;;4.20;;
60086;SDS011;45960;53.630;55.972;2022-09-09T01:02:46;6.90;;;4.00;;
60086;SDS011;45960;53.630;55.972;2022-09-09T01:04:16;7.22;;;4.13;;
60086;SDS011;45960;53.630;55.972;2022-09-09T01:05:33;12.30;;;4.50;;
60086;SDS011;45960;53.630;55.972;2022-09-09T01:06:45;6.43;;;4.20;;
60086;SDS011;45960;53.630;55.972;2022-09-09T01:07:52;5.95;;;4.60;;
60086;SDS011;45960;53.630;55.972;2022-09-09T01:10:54;6.95;;;4.03;;
60086;SDS011;45960;53.630;55.972;2022-09-09T01:12:09;7.65;;;4.50;;
60086;SDS011;45960;53.630;55.972;2022-09-09T01:13:20;6.80;;;3.92;;
60086;SDS011;45960;53.630;55.972;2022-09-09T01:15:35;8.32;;;4.75;;
60086;SDS011;45960;53.630;55.972;2022-09-09T01:16:38;8.93;;;4.60;;
60086;SDS011;45960;53.630;55.972;2022-09-09T01:18:46;9.43;;;4.80;;
60086;SDS011;45960;53.630;55.972;2022-09-09T01:19:55;9.68;;;4.75;;
60086;SDS011;45960;53.630;55.972;2022-09-09T01:26:43;9.32;;;4.75;;
60086;SDS011;45960;53.630;55.972;2022-09-09T01:27:55;7.18;;;4.18;;
60086;SDS011;45960;53.630;55.972;2022-09-09T01:28:59;7.15;;;4.57;;
60086;SDS011;45960;53.630;55.972;2022-09-09T01:30:10;9.20;;;4.22;;
60086;SDS011;45960;53.630;55.972;2022-09-09T01:31:22;8.90;;;4.63;;
60086;SDS011;45960;53.630;55.972;2022-09-09T01:32:52;8.10;;;4.20;;
60086;SDS011;45960;53.630;55.972;2022-09-09T01:33:56;6.20;;;3.75;;
60086;SDS011;45960;53.630;55.972;2022-09-09T01:34:57;6.88;;;4.07;;
60086;SDS011;45960;53.630;55.972;2022-09-09T01:37:11;6.72;;;4.25;;
60086;SDS011;45960;53.630;55.972;2022-09-09T01:38:14;7.85;;;4.30;;
60086;SDS011;45960;53.630;55.972;2022-09-09T01:39:17;6.10;;;3.97;;
60086;SDS011;45960;53.630;55.972;2022-09-09T01:40:19;9.68;;;3.70;;
60086;SDS011;45960;53.630;55.972;2022-09-09T01:41:22;7.45;;;4.00;;
60086;SDS011;45960;53.630;55.972;2022-09-09T01:42:31;5.05;;;3.80;;
60086;SDS011;45960;53.630;55.972;2022-09-09T01:43:33;11.05;;;5.07;;
60086;SDS011;45960;53.630;55.972;2022-09-09T01:44:35;6.25;;;4.30;;
60086;SDS011;45960;53.630;55.972;2022-09-09T01:45:38;6.47;;;3.90;;
60086;SDS011;45960;53.630;55.972;2022-09-09T01:46:41;5.90;;;3.85;;
60086;SDS011;45960;53.630;55.972;2022-09-09T01:47:49;5.18;;;3.33;;
60086;SDS011;45960;53.630;55.972;2022-09-09T01:49:11;7.13;;;3.85;;
60086;SDS011;45960;53.630;55.972;2022-09-09T01:50:12;8.40;;;4.15;;
60086;SDS011;45960;53.630;55.972;2022-09-09T01:51:17;6.50;;;3.75;;
60086;SDS011;45960;53.630;55.972;2022-09-09T01:52:18;7.10;;;3.75;;
60086;SDS011;45960;53.630;55.972;2022-09-09T01:53:20;6.75;;;3.65;;
60086;SDS011;45960;53.630;55.972;2022-09-09T01:54:23;14.30;;;4.25;;
60086;SDS011;45960;53.630;55.972;2022-09-09T01:55:32;5.82;;;3.70;;
60086;SDS011;45960;53.630;55.972;2022-09-09T01:59:37;6.05;;;3.90;;
60086;SDS011;45960;53.630;55.972;2022-09-09T02:02:30;5.17;;;3.33;;
60086;SDS011;45960;53.630;55.972;2022-09-09T02:03:50;7.95;;;3.78;;
60086;SDS011;45960;53.630;55.972;2022-09-09T02:04:55;5.22;;;3.90;;
60086;SDS011;45960;53.630;55.972;2022-09-09T02:06:48;5.57;;;3.33;;
60086;SDS011;45960;53.630;55.972;2022-09-09T02:08:05;5.63;;;4.03;;
60086;SDS011;45960;53.630;55.972;2022-09-09T02:09:23;6.20;;;3.63;;
60086;SDS011;45960;53.630;55.972;2022-09-09T02:10:35;5.55;;;3.67;;
60086;SDS011;45960;53.630;55.972;2022-09-09T02:11:49;11.15;;;3.85;;
60086;SDS011;45960;53.630;55.972;2022-09-09T02:13:12;8.10;;;3.83;;
60086;SDS011;45960;53.630;55.972;2022-09-09T02:14:16;9.40;;;3.78;;
60086;SDS011;45960;53.630;55.972;2022-09-09T02:15:27;4.63;;;3.28;;
60086;SDS011;45960;53.630;55.972;2022-09-09T02:16:42;9.20;;;4.07;;
60086;SDS011;45960;53.630;55.972;2022-09-09T02:17:49;6.32;;;3.80;;
60086;SDS011;45960;53.630;55.972;2022-09-09T02:20:34;12.97;;;3.70;;
60086;SDS011;45960;53.630;55.972;2022-09-09T02:21:40;6.85;;;4.47;;
60086;SDS011;45960;53.630;55.972;2022-09-09T02:22:44;11.25;;;4.28;;
60086;SDS011;45960;53.630;55.972;2022-09-09T02:23:51;26.88;;;5.05;;
60086;SDS011;45960;53.630;55.972;2022-09-09T02:24:54;16.05;;;4.03;;
60086;SDS011;45960;53.630;55.972;2022-09-09T02:26:01;8.57;;;4.07;;
60086;SDS011;45960;53.630;55.972;2022-09-09T02:27:05;5.32;;;3.90;;
60086;SDS011;45960;53.630;55.972;2022-09-09T02:28:09;15.88;;;4.45;;
60086;SDS011;45960;53.630;55.972;2022-09-09T02:29:46;18.90;;;4.63;;
60086;SDS011;45960;53.630;55.972;2022-09-09T02:30:48;5.25;;;3.65;;
60086;SDS011;45960;53.630;55.972;2022-09-09T02:31:59;5.50;;;3.75;;
60086;SDS011;45960;53.630;55.972;2022-09-09T02:33:07;16.67;;;4.00;;
60086;SDS011;45960;53.630;55.972;2022-09-09T02:34:20;14.32;;;4.25;;
60086;SDS011;45960;53.630;55.972;2022-09-09T02:35:24;6.95;;;4.20;;
60086;SDS011;45960;53.630;55.972;2022-09-09T02:36:29;7.13;;;3.63;;
60086;SDS011;45960;53.630;55.972;2022-09-09T02:37:37;10.70;;;3.47;;
60086;SDS011;45960;53.630;55.972;2022-09-09T02:38:42;9.38;;;3.80;;
60086;SDS011;45960;53.630;55.972;2022-09-09T02:39:51;9.43;;;4.00;;
60086;SDS011;45960;53.630;55.972;2022-09-09T02:40:54;10.60;;;4.38;;
60086;SDS011;45960;53.630;55.972;2022-09-09T02:41:55;5.72;;;4.15;;
60086;SDS011;45960;53.630;55.972;2022-09-09T02:43:04;7.45;;;3.92;;
60086;SDS011;45960;53.630;55.972;2022-09-09T02:44:11;5.97;;;3.83;;
60086;SDS011;45960;53.630;55.972;2022-09-09T02:45:18;6.38;;;3.97;;
60086;SDS011;45960;53.630;55.972;2022-09-09T02:47:57;5.10;;;4.00;;
60086;SDS011;45960;53.630;55.972;2022-09-09T02:49:18;5.55;;;3.75;;
60086;SDS011;45960;53.630;55.972;2022-09-09T02:51:05;9.40;;;4.07;;
60086;SDS011;45960;53.630;55.972;2022-09-09T02:52:05;5.53;;;3.75;;
60086;SDS011;45960;53.630;55.972;2022-09-09T02:53:12;9.27;;;3.72;;
60086;SDS011;45960;53.630;55.972;2022-09-09T02:56:47;9.85;;;4.35;;
60086;SDS011;45960;53.630;55.972;2022-09-09T02:57:58;7.85;;;3.78;;
60086;SDS011;45960;53.630;55.972;2022-09-09T02:59:03;6.35;;;4.15;;
60086;SDS011;45960;53.630;55.972;2022-09-09T03:00:06;9.13;;;3.97;;
60086;SDS011;45960;53.630;55.972;2022-09-09T03:01:08;11.05;;;4.30;;
60086;SDS011;45960;53.630;55.972;2022-09-09T03:02:10;8.20;;;4.10;;
60086;SDS011;45960;53.630;55.972;2022-09-09T03:03:12;6.40;;;4.15;;
60086;SDS011;45960;53.630;55.972;2022-09-09T03:04:14;6.88;;;4.20;;
60086;SDS011;45960;53.630;55.972;2022-09-09T03:05:15;7.97;;;4.15;;
60086;SDS011;45960;53.630;55.972;2022-09-09T03:06:16;9.00;;;4.28;;
60086;SDS011;45960;53.630;55.972;2022-09-09T03:07:21;9.15;;;4.00;;
60086;SDS011;45960;53.630;55.972;2022-09-09T03:08:24;8.07;;;3.38;;
60086;SDS011;45960;53.630;55.972;2022-09-09T03:09:27;7.93;;;3.85;;
60086;SDS011;45960;53.630;55.972;2022-09-09T03:10:28;7.18;;;4.10;;
60086;SDS011;45960;53.630;55.972;2022-09-09T03:11:29;5.95;;;3.90;;
60086;SDS011;45960;53.630;55.972;2022-09-09T03:12:32;7.90;;;4.40;;
60086;SDS011;45960;53.630;55.972;2022-09-09T03:13:34;6.35;;;3.78;;
60086;SDS011;45960;53.630;55.972;2022-09-09T03:14:35;8.98;;;3.55;;
60086;SDS011;45960;53.630;55.972;2022-09-09T03:15:36;6.13;;;4.00;;
60086;SDS011;45960;53.630;55.972;2022-09-09T03:16:38;9.07;;;4.30;;
60086;SDS011;45960;53.630;55.972;2022-09-09T03:17:39;6.53;;;4.10;;
60086;SDS011;45960;53.630;55.972;2022-09-09T03:18:41;7.65;;;4.13;;
60086;SDS011;45960;53.630;55.972;2022-09-09T03:19:43;9.02;;;4.40;;
60086;SDS011;45960;53.630;55.972;2022-09-09T03:20:45;5.78;;;3.85;;
60086;SDS011;45960;53.630;55.972;2022-09-09T03:21:50;9.05;;;4.28;;
60086;SDS011;45960;53.630;55.972;2022-09-09T03:22:52;6.70;;;4.43;;
60086;SDS011;45960;53.630;55.972;2022-09-09T03:23:54;9.80;;;4.30;;
60086;SDS011;45960;53.630;55.972;2022-09-09T03:24:56;7.32;;;4.38;;
60086;SDS011;45960;53.630;55.972;2022-09-09T03:25:57;7.10;;;3.70;;
60086;SDS011;45960;53.630;55.972;2022-09-09T03:27:08;6.28;;;3.90;;
60086;SDS011;45960;53.630;55.972;2022-09-09T03:28:11;8.05;;;3.92;;
60086;SDS011;45960;53.630;55.972;2022-09-09T03:29:13;6.13;;;3.90;;
60086;SDS011;45960;53.630;55.972;2022-09-09T03:30:15;6.03;;;4.57;;
60086;SDS011;45960;53.630;55.972;2022-09-09T03:31:17;5.93;;;3.58;;
60086;SDS011;45960;53.630;55.972;2022-09-09T03:32:19;5.90;;;3.97;;
60086;SDS011;45960;53.630;55.972;2022-09-09T03:33:23;6.63;;;3.40;;
60086;SDS011;45960;53.630;55.972;2022-09-09T03:34:24;7.03;;;3.33;;
60086;SDS011;45960;53.630;55.972;2022-09-09T03:35:25;5.28;;;4.00;;
60086;SDS011;45960;53.630;55.972;2022-09-09T03:36:26;5.57;;;3.65;;
60086;SDS011;45960;53.630;55.972;2022-09-09T03:37:29;6.93;;;3.40;;
60086;SDS011;45960;53.630;55.972;2022-09-09T03:38:30;5.65;;;3.13;;
60086;SDS011;45960;53.630;55.972;2022-09-09T03:39:33;6.05;;;3.40;;
60086;SDS011;45960;53.630;55.972;2022-09-09T03:40:34;5.70;;;3.25;;
60086;SDS011;45960;53.630;55.972;2022-09-09T03:41:35;7.47;;;3.25;;
60086;SDS011;45960;53.630;55.972;2022-09-09T03:42:38;6.53;;;2.67;;
60086;SDS011;45960;53.630;55.972;2022-09-09T03:43:40;6.43;;;3.38;;
60086;SDS011;45960;53.630;55.972;2022-09-09T03:44:42;5.40;;;3.13;;
60086;SDS011;45960;53.630;55.972;2022-09-09T03:45:46;4.57;;;3.20;;
60086;SDS011;45960;53.630;55.972;2022-09-09T03:46:48;7.45;;;3.17;;
60086;SDS011;45960;53.630;55.972;2022-09-09T03:47:49;5.28;;;3.15;;
60086;SDS011;45960;53.630;55.972;2022-09-09T03:48:51;4.00;;;3.17;;
60086;SDS011;45960;53.630;55.972;2022-09-09T03:49:55;7.35;;;3.20;;
60086;SDS011;45960;53.630;55.972;2022-09-09T03:50:56;5.20;;;2.60;;
60086;SDS011;45960;53.630;55.972;2022-09-09T03:52:01;3.92;;;2.38;;
60086;SDS011;45960;53.630;55.972;2022-09-09T03:53:03;4.38;;;2.88;;
60086;SDS011;45960;53.630;55.972;2022-09-09T03:54:06;3.58;;;2.67;;
60086;SDS011;45960;53.630;55.972;2022-09-09T03:55:10;6.53;;;2.70;;
60086;SDS011;45960;53.630;55.972;2022-09-09T03:56:11;4.25;;;2.25;;
60086;SDS011;45960;53.630;55.972;2022-09-09T03:57:12;6.72;;;2.80;;
60086;SDS011;45960;53.630;55.972;2022-09-09T03:58:17;3.70;;;2.40;;
60086;SDS011;45960;53.630;55.972;2022-09-09T03:59:21;4.78;;;2.55;;
60086;SDS011;45960;53.630;55.972;2022-09-09T04:00:24;4.78;;;2.25;;
60086;SDS011;45960;53.630;55.972;2022-09-09T04:01:26;4.45;;;2.40;;
60086;SDS011;45960;53.630;55.972;2022-09-09T04:02:28;6.95;;;2.20;;
60086;SDS011;45960;53.630;55.972;2022-09-09T04:03:29;3.20;;;2.65;;
60086;SDS011;45960;53.630;55.972;2022-09-09T04:04:30;8.13;;;2.47;;
60086;SDS011;45960;53.630;55.972;2022-09-09T04:05:32;6.70;;;2.22;;
60086;SDS011;45960;53.630;55.972;2022-09-09T04:06:34;4.75;;;2.72;;
60086;SDS011;45960;53.630;55.972;2022-09-09T04:07:35;5.30;;;2.25;;
60086;SDS011;45960;53.630;55.972;2022-09-09T04:08:37;7.00;;;3.67;;
60086;SDS011;45960;53.630;55.972;2022-09-09T04:09:39;6.53;;;2.47;;
60086;SDS011;45960;53.630;55.972;2022-09-09T04:10:40;4.07;;;2.58;;
60086;SDS011;45960;53.630;55.972;2022-09-09T04:11:42;5.25;;;2.30;;
60086;SDS011;45960;53.630;55.972;2022-09-09T04:12:44;5.40;;;2.63;;
60086;SDS011;45960;53.630;55.972;2022-09-09T04:13:45;8.48;;;2.22;;
60086;SDS011;45960;53.630;55.972;2022-09-09T04:14:47;3.28;;;2.30;;
60086;SDS011;45960;53.630;55.972;2022-09-09T04:15:50;4.15;;;2.30;;
60086;SDS011;45960;53.630;55.972;2022-09-09T04:16:53;4.05;;;2.20;;
60086;SDS011;45960;53.630;55.972;2022-09-09T04:17:54;8.77;;;2.72;;
60086;SDS011;45960;53.630;55.972;2022-09-09T04:18:56;5.18;;;2.53;;
60086;SDS011;45960;53.630;55.972;2022-09-09T04:19:58;4.63;;;3.08;;
60086;SDS011;45960;53.630;55.972;2022-09-09T04:21:00;4.78;;;3.25;;
60086;SDS011;45960;53.630;55.972;2022-09-09T04:22:04;8.40;;;3.33;;
60086;SDS011;45960;53.630;55.972;2022-09-09T04:23:06;4.70;;;2.03;;
60086;SDS011;45960;53.630;55.972;2022-09-09T04:24:07;5.30;;;2.60;;
60086;SDS011;45960;53.630;55.972;2022-09-09T04:25:09;3.78;;;2.47;;
60086;SDS011;45960;53.630;55.972;2022-09-09T04:26:10;4.25;;;2.50;;
60086;SDS011;45960;53.630;55.972;2022-09-09T04:27:13;11.40;;;2.67;;
60086;SDS011;45960;53.630;55.972;2022-09-09T04:28:15;6.07;;;2.58;;
60086;SDS011;45960;53.630;55.972;2022-09-09T04:29:17;6.00;;;2.78;;
60086;SDS011;45960;53.630;55.972;2022-09-09T04:30:18;6.15;;;2.70;;
60086;SDS011;45960;53.630;55.972;2022-09-09T04:31:20;5.30;;;2.47;;
60086;SDS011;45960;53.630;55.972;2022-09-09T04:32:25;4.45;;;2.60;;
60086;SDS011;45960;53.630;55.972;2022-09-09T04:33:29;6.65;;;2.70;;
60086;SDS011;45960;53.630;55.972;2022-09-09T04:34:31;5.72;;;2.25;;
60086;SDS011;45960;53.630;55.972;2022-09-09T04:35:33;8.43;;;2.53;;
60086;SDS011;45960;53.630;55.972;2022-09-09T04:36:35;3.97;;;2.88;;
60086;SDS011;45960;53.630;55.972;2022-09-09T04:37:39;6.00;;;2.95;;
60086;SDS011;45960;53.630;55.972;2022-09-09T04:38:40;9.82;;;2.42;;
60086;SDS011;45960;53.630;55.972;2022-09-09T04:39:41;9.55;;;3.13;;
60086;SDS011;45960;53.630;55.972;2022-09-09T04:40:43;10.45;;;2.90;;
60086;SDS011;45960;53.630;55.972;2022-09-09T04:41:48;5.80;;;2.45;;
60086;SDS011;45960;53.630;55.972;2022-09-09T04:42:49;6.10;;;2.90;;
60086;SDS011;45960;53.630;55.972;2022-09-09T04:43:50;3.53;;;2.75;;
60086;SDS011;45960;53.630;55.972;2022-09-09T04:44:55;8.73;;;2.60;;
60086;SDS011;45960;53.630;55.972;2022-09-09T04:45:57;7.03;;;2.85;;
60086;SDS011;45960;53.630;55.972;2022-09-09T04:46:59;5.43;;;2.92;;
60086;SDS011;45960;53.630;55.972;2022-09-09T04:48:00;8.00;;;3.22;;
60086;SDS011;45960;53.630;55.972;2022-09-09T04:49:03;7.55;;;3.40;;
60086;SDS011;45960;53.630;55.972;2022-09-09T04:50:07;9.85;;;3.75;;
60086;SDS011;45960;53.630;55.972;2022-09-09T04:51:11;5.78;;;3.08;;
60086;SDS011;45960;53.630;55.972;2022-09-09T04:52:14;6.03;;;2.72;;
60086;SDS011;45960;53.630;55.972;2022-09-09T04:53:18;7.50;;;3.47;;
60086;SDS011;45960;53.630;55.972;2022-09-09T04:54:19;6.05;;;3.25;;
60086;SDS011;45960;53.630;55.972;2022-09-09T04:55:20;5.10;;;3.28;;
60086;SDS011;45960;53.630;55.972;2022-09-09T04:56:22;5.03;;;2.70;;
60086;SDS011;45960;53.630;55.972;2022-09-09T04:57:29;11.85;;;3.60;;
60086;SDS011;45960;53.630;55.972;2022-09-09T04:58:32;9.07;;;3.38;;
60086;SDS011;45960;53.630;55.972;2022-09-09T04:59:33;5.68;;;3.20;;
60086;SDS011;45960;53.630;55.972;2022-09-09T05:00:36;6.45;;;3.85;;
60086;SDS011;45960;53.630;55.972;2022-09-09T05:01:40;5.38;;;3.40;;
60086;SDS011;45960;53.630;55.972;2022-09-09T05:02:41;10.68;;;3.45;;
60086;SDS011;45960;53.630;55.972;2022-09-09T05:03:43;4.88;;;3.50;;
60086;SDS011;45960;53.630;55.972;2022-09-09T05:04:52;10.02;;;3.30;;
60086;SDS011;45960;53.630;55.972;2022-09-09T05:05:53;6.95;;;2.95;;
60086;SDS011;45960;53.630;55.972;2022-09-09T05:06:55;7.28;;;3.63;;
60086;SDS011;45960;53.630;55.972;2022-09-09T05:08:02;6.85;;;3.65;;
60086;SDS011;45960;53.630;55.972;2022-09-09T05:09:08;7.57;;;3.90;;
60086;SDS011;45960;53.630;55.972;2022-09-09T05:10:09;6.10;;;3.80;;
60086;SDS011;45960;53.630;55.972;2022-09-09T05:12:15;10.25;;;3.20;;
60086;SDS011;45960;53.630;55.972;2022-09-09T05:13:25;6.68;;;3.83;;
60086;SDS011;45960;53.630;55.972;2022-09-09T05:14:27;11.43;;;4.20;;
60086;SDS011;45960;53.630;55.972;2022-09-09T05:15:29;11.90;;;3.85;;
60086;SDS011;45960;53.630;55.972;2022-09-09T05:16:30;6.88;;;3.88;;
60086;SDS011;45960;53.630;55.972;2022-09-09T05:17:32;10.43;;;4.15;;
60086;SDS011;45960;53.630;55.972;2022-09-09T05:18:33;11.30;;;4.38;;
60086;SDS011;45960;53.630;55.972;2022-09-09T05:19:34;6.72;;;3.97;;
60086;SDS011;45960;53.630;55.972;2022-09-09T05:20:35;8.63;;;4.25;;
60086;SDS011;45960;53.630;55.972;2022-09-09T05:21:37;9.52;;;4.43;;
60086;SDS011;45960;53.630;55.972;2022-09-09T05:22:38;9.45;;;4.10;;
60086;SDS011;45960;53.630;55.972;2022-09-09T05:23:39;10.43;;;4.13;;
60086;SDS011;45960;53.630;55.972;2022-09-09T05:24:40;8.55;;;3.85;;
60086;SDS011;45960;53.630;55.972;2022-09-09T05:25:42;4.80;;;3.40;;
60086;SDS011;45960;53.630;55.972;2022-09-09T05:26:44;10.88;;;3.50;;
60086;SDS011;45960;53.630;55.972;2022-09-09T05:27:45;7.68;;;3.03;;
60086;SDS011;45960;53.630;55.972;2022-09-09T05:28:48;8.18;;;3.08;;
60086;SDS011;45960;53.630;55.972;2022-09-09T05:29:50;8.27;;;3.50;;
60086;SDS011;45960;53.630;55.972;2022-09-09T05:31:04;9.82;;;3.70;;
60086;SDS011;45960;53.630;55.972;2022-09-09T05:32:09;4.65;;;3.13;;
60086;SDS011;45960;53.630;55.972;2022-09-09T05:33:10;7.97;;;3.10;;
60086;SDS011;45960;53.630;55.972;2022-09-09T05:34:12;7.07;;;3.20;;
60086;SDS011;45960;53.630;55.972;2022-09-09T05:35:13;8.63;;;3.60;;
60086;SDS011;45960;53.630;55.972;2022-09-09T05:36:16;11.05;;;3.53;;
60086;SDS011;45960;53.630;55.972;2022-09-09T05:37:20;7.20;;;3.30;;
60086;SDS011;45960;53.630;55.972;2022-09-09T05:38:21;5.75;;;3.55;;
60086;SDS011;45960;53.630;55.972;2022-09-09T05:39:24;10.02;;;3.95;;
60086;SDS011;45960;53.630;55.972;2022-09-09T05:40:26;6.40;;;4.10;;
60086;SDS011;45960;53.630;55.972;2022-09-09T05:41:27;14.77;;;4.18;;
60086;SDS011;45960;53.630;55.972;2022-09-09T05:42:31;8.00;;;4.22;;
60086;SDS011;45960;53.630;55.972;2022-09-09T05:43:33;13.30;;;4.00;;
60086;SDS011;45960;53.630;55.972;2022-09-09T05:44:37;9.45;;;4.80;;
60086;SDS011;45960;53.630;55.972;2022-09-09T05:45:38;7.30;;;4.22;;
60086;SDS011;45960;53.630;55.972;2022-09-09T05:46:39;7.15;;;3.97;;
60086;SDS011;45960;53.630;55.972;2022-09-09T05:47:41;9.07;;;4.47;;
60086;SDS011;45960;53.630;55.972;2022-09-09T05:48:45;5.97;;;4.20;;
60086;SDS011;45960;53.630;55.972;2022-09-09T05:49:47;8.57;;;5.38;;
60086;SDS011;45960;53.630;55.972;2022-09-09T05:50:52;8.80;;;4.43;;
60086;SDS011;45960;53.630;55.972;2022-09-09T05:51:55;12.38;;;4.68;;
60086;SDS011;45960;53.630;55.972;2022-09-09T05:52:57;7.35;;;4.28;;
60086;SDS011;45960;53.630;55.972;2022-09-09T05:53:59;8.10;;;4.47;;
60086;SDS011;45960;53.630;55.972;2022-09-09T05:55:03;9.20;;;4.82;;
60086;SDS011;45960;53.630;55.972;2022-09-09T05:56:08;10.30;;;4.25;;
60086;SDS011;45960;53.630;55.972;2022-09-09T05:57:18;7.10;;;4.25;;
60086;SDS011;45960;53.630;55.972;2022-09-09T05:58:20;9.27;;;3.90;;
60086;SDS011;45960;53.630;55.972;2022-09-09T05:59:21;9.02;;;4.20;;
60086;SDS011;45960;53.630;55.972;2022-09-09T06:00:26;9.38;;;4.07;;
60086;SDS011;45960;53.630;55.972;2022-09-09T06:01:28;6.78;;;4.47;;
60086;SDS011;45960;53.630;55.972;2022-09-09T06:02:31;11.00;;;4.65;;
60086;SDS011;45960;53.630;55.972;2022-09-09T06:03:34;14.25;;;5.10;;
60086;SDS011;45960;53.630;55.972;2022-09-09T06:04:39;10.07;;;5.20;;
60086;SDS011;45960;53.630;55.972;2022-09-09T06:05:41;7.78;;;4.13;;
60086;SDS011;45960;53.630;55.972;2022-09-09T06:06:42;12.00;;;4.45;;
60086;SDS011;45960;53.630;55.972;2022-09-09T06:07:52;7.55;;;3.83;;
60086;SDS011;45960;53.630;55.972;2022-09-09T06:08:54;7.13;;;4.38;;
60086;SDS011;45960;53.630;55.972;2022-09-09T06:09:59;8.68;;;3.70;;
60086;SDS011;45960;53.630;55.972;2022-09-09T06:11:01;8.82;;;4.10;;
60086;SDS011;45960;53.630;55.972;2022-09-09T06:12:04;7.53;;;3.13;;
60086;SDS011;45960;53.630;55.972;2022-09-09T06:13:08;10.73;;;3.65;;
60086;SDS011;45960;53.630;55.972;2022-09-09T06:14:10;7.25;;;3.88;;
60086;SDS011;45960;53.630;55.972;2022-09-09T06:15:13;7.45;;;3.85;;
60086;SDS011;45960;53.630;55.972;2022-09-09T06:16:16;5.97;;;3.30;;
60086;SDS011;45960;53.630;55.972;2022-09-09T06:17:19;6.97;;;3.72;;
60086;SDS011;45960;53.630;55.972;2022-09-09T06:18:20;7.10;;;3.50;;
60086;SDS011;45960;53.630;55.972;2022-09-09T06:19:21;7.47;;;3.88;;
60086;SDS011;45960;53.630;55.972;2022-09-09T06:20:25;8.20;;;3.80;;
60086;SDS011;45960;53.630;55.972;2022-09-09T06:21:26;5.60;;;3.50;;
60086;SDS011;45960;53.630;55.972;2022-09-09T06:22:31;7.47;;;3.72;;
60086;SDS011;45960;53.630;55.972;2022-09-09T06:23:33;5.15;;;3.40;;
60086;SDS011;45960;53.630;55.972;2022-09-09T06:24:38;5.80;;;3.70;;
60086;SDS011;45960;53.630;55.972;2022-09-09T06:25:40;6.32;;;3.60;;
60086;SDS011;45960;53.630;55.972;2022-09-09T06:26:42;6.35;;;3.60;;
60086;SDS011;45960;53.630;55.972;2022-09-09T06:27:52;7.90;;;3.83;;
60086;SDS011;45960;53.630;55.972;2022-09-09T06:28:54;5.25;;;3.10;;
60086;SDS011;45960;53.630;55.972;2022-09-09T06:29:56;9.70;;;3.67;;
60086;SDS011;45960;53.630;55.972;2022-09-09T06:30:58;7.70;;;3.60;;
60086;SDS011;45960;53.630;55.972;2022-09-09T06:32:04;8.57;;;3.30;;
60086;SDS011;45960;53.630;55.972;2022-09-09T06:33:05;12.68;;;3.40;;
60086;SDS011;45960;53.630;55.972;2022-09-09T06:34:07;7.38;;;3.45;;
60086;SDS011;45960;53.630;55.972;2022-09-09T06:35:12;7.97;;;3.38;;
60086;SDS011;45960;53.630;55.972;2022-09-09T06:36:15;6.35;;;3.35;;
60086;SDS011;45960;53.630;55.972;2022-09-09T06:37:18;8.70;;;3.25;;
60086;SDS011;45960;53.630;55.972;2022-09-09T06:38:22;7.22;;;2.83;;
60086;SDS011;45960;53.630;55.972;2022-09-09T06:39:24;9.70;;;3.58;;
60086;SDS011;45960;53.630;55.972;2022-09-09T06:40:26;8.43;;;3.85;;
60086;SDS011;45960;53.630;55.972;2022-09-09T06:41:28;10.65;;;3.50;;
60086;SDS011;45960;53.630;55.972;2022-09-09T06:42:31;10.93;;;3.90;;
60086;SDS011;45960;53.630;55.972;2022-09-09T06:43:42;6.85;;;3.78;;
60086;SDS011;45960;53.630;55.972;2022-09-09T06:44:45;11.05;;;5.30;;
60086;SDS011;45960;53.630;55.972;2022-09-09T06:46:59;9.18;;;3.97;;
60086;SDS011;45960;53.630;55.972;2022-09-09T06:48:01;9.77;;;3.88;;
60086;SDS011;45960;53.630;55.972;2022-09-09T06:49:03;11.10;;;4.45;;
60086;SDS011;45960;53.630;55.972;2022-09-09T06:50:04;13.98;;;4.18;;
60086;SDS011;45960;53.630;55.972;2022-09-09T06:51:10;8.27;;;3.97;;
60086;SDS011;45960;53.630;55.972;2022-09-09T06:52:14;11.82;;;4.80;;
60086;SDS011;45960;53.630;55.972;2022-09-09T06:53:16;9.52;;;4.45;;
60086;SDS011;45960;53.630;55.972;2022-09-09T06:54:20;12.48;;;4.10;;
60086;SDS011;45960;53.630;55.972;2022-09-09T06:55:22;8.27;;;4.32;;
60086;SDS011;45960;53.630;55.972;2022-09-09T06:56:34;13.07;;;3.97;;
60086;SDS011;45960;53.630;55.972;2022-09-09T06:57:41;10.38;;;4.20;;
60086;SDS011;45960;53.630;55.972;2022-09-09T06:58:51;11.95;;;4.45;;
60086;SDS011;45960;53.630;55.972;2022-09-09T06:59:58;11.43;;;4.13;;
60086;SDS011;45960;53.630;55.972;2022-09-09T07:01:06;11.55;;;4.10;;
60086;SDS011;45960;53.630;55.972;2022-09-09T07:02:08;7.65;;;4.18;;
60086;SDS011;45960;53.630;55.972;2022-09-09T07:03:10;12.75;;;4.95;;
60086;SDS011;45960;53.630;55.972;2022-09-09T07:04:11;13.70;;;4.50;;
60086;SDS011;45960;53.630;55.972;2022-09-09T07:05:16;6.07;;;3.85;;
60086;SDS011;45960;53.630;55.972;2022-09-09T07:06:22;9.13;;;3.83;;
60086;SDS011;45960;53.630;55.972;2022-09-09T07:07:25;14.45;;;4.03;;
60086;SDS011;45960;53.630;55.972;2022-09-09T07:08:27;11.38;;;3.83;;
60086;SDS011;45960;53.630;55.972;2022-09-09T07:09:29;7.97;;;3.78;;
60086;SDS011;45960;53.630;55.972;2022-09-09T07:10:32;12.30;;;3.35;;